Oakbrook, Washington
Current Conditions -  °F | °C
As of 11:58 AM on Monday 24 Nov 2014 (Local Time) from KTCM Reporting Station
Overcast Overcast  
Wind Chill:   Ceiling: 4700
Heat Index:   Visibility: 10mi
Dew Point:   Wind: 2mph
Humidity: 94%   Direction: 200°SSW
Pressure: 30.29"   Gusts: NA
Location:  47.1809°N, 122.548°W
Report Text: KTCM 241958Z AUTO 20002KT 10SM OVC047 07/06 A3029 RMK AO2 SLP263 T00700061 $
Loading
Personal Weather Stations






























Interactive Weather Map New forecast layout! Learn more

10-Day Weather Forecast

Advertisements
Track Severe Weather on mobile